Time,TemperatureF,DewpointF,PressureIn,WindDirection,WindDirectionDegrees,WindSpeedMPH,WindSpeedGustMPH,Humidity,HourlyPrecipIn,Conditions,Clouds,dailyrainin,SoftwareType,DateUTC
2013-02-23 00:00:00,36.5,30.9,30.16,SSE,158,0.0,0.0,80,0.00,CLR,,0.00,WeatherDisplay:10.37,2013-02-23 05:00:00,
2013-02-23 00:01:00,36.5,30.9,30.16,South,180,0.0,0.0,80,0.00,CLR,,0.00,WeatherDisplay:10.37,2013-02-23 05:01:00,
2013-02-23 00:02:00,36.5,30.9,30.16,West,270,0.0,0.0,80,0.00,CLR,,0.00,WeatherDisplay:10.37,2013-02-23 05:02:00,
2013-02-23 00:07:00,36.3,30.7,30.16,SE,135,0.0,0.0,80,0.00,CLR,,0.00,WeatherDisplay:10.37,2013-02-23 05:07:00,
2013-02-23 00:12:00,36.5,30.9,30.16,SE,135,0.0,0.0,80,0.00,CLR,,0.00,WeatherDisplay:10.37,2013-02-23 05:12:00,
2013-02-23 00:17:00,36.5,30.9,30.17,WNW,292,0.0,0.0,80,0.00,OVC,,0.00,WeatherDisplay:10.37,2013-02-23 05:17:00,
2013-02-23 00:22:00,36.5,30.9,30.17,NW,315,0.0,0.0,80,0.00,OVC,,0.00,WeatherDisplay:10.37,2013-02-23 05:22:00,
2013-02-23 00:27:00,36.5,30.9,30.17,South,180,0.0,0.0,80,0.00,OVC,,0.00,WeatherDisplay:10.37,2013-02-23 05:27:00,
2013-02-23 00:32:00,36.5,31.5,30.17,SE,135,2.3,2.3,82,0.00,OVC,,0.00,WeatherDisplay:10.37,2013-02-23 05:32:00,
2013-02-23 00:37:00,36.5,31.5,30.17,ENE,68,0.0,0.2,82,0.00,OVC,,0.00,WeatherDisplay:10.37,2013-02-23 05:37:00,
2013-02-23 00:42:00,36.5,31.5,30.17,ENE,68,0.0,0.1,82,0.00,OVC,,0.00,WeatherDisplay:10.37,2013-02-23 05:42:00,
2013-02-23 00:47:00,36.5,31.5,30.17,ESE,112,0.0,0.0,82,0.00,OVC,,0.00,WeatherDisplay:10.37,2013-02-23 05:47:00,
2013-02-23 00:52:00,36.5,31.5,30.17,East,90,0.0,0.0,82,0.00,OVC,,0.00,WeatherDisplay:10.37,2013-02-23 05:52:00,
2013-02-23 00:57:00,36.7,32.0,30.15,East,90,0.0,0.0,83,0.00,OVC,,0.00,WeatherDisplay:10.37,2013-02-23 05:57:00,
2013-02-23 01:02:00,36.5,32.1,30.15,ESE,112,0.0,0.0,84,0.00,OVC,,0.00,WeatherDisplay:10.37,2013-02-23 06:02:00,
2013-02-23 01:07:00,36.5,31.8,30.15,SE,135,0.0,0.0,83,0.00,OVC,,0.00,WeatherDisplay:10.37,2013-02-23 06:07:00,
2013-02-23 01:12:00,36.7,32.3,30.15,ESE,112,0.0,0.3,84,0.00,OVC,,0.00,WeatherDisplay:10.37,2013-02-23 06:12:00,
2013-02-23 01:17:00,36.7,32.6,30.15,ESE,112,0.0,0.3,85,0.00,OVC,,0.00,WeatherDisplay:10.37,2013-02-23 06:17:00,
2013-02-23 01:23:00,36.7,32.6,30.15,SE,135,1.1,1.1,85,0.00,OVC,,0.00,WeatherDisplay:10.37,2013-02-23 06:23:00,
2013-02-23 01:28:00,36.5,32.4,30.15,ESE,112,0.0,0.3,85,0.00,OVC,,0.00,WeatherDisplay:10.37,2013-02-23 06:28:00,
2013-02-23 01:33:00,36.5,32.4,30.15,ESE,112,0.0,0.3,85,0.00,OVC,,0.00,WeatherDisplay:10.37,2013-02-23 06:33:00,
2013-02-23 01:38:00,36.5,32.7,30.13,ESE,112,0.0,0.3,86,0.00,OVC,,0.00,WeatherDisplay:10.37,2013-02-23 06:38:00,
2013-02-23 01:43:00,36.5,33.0,30.13,SE,135,2.3,2.3,87,0.00,OVC,,0.00,WeatherDisplay:10.37,2013-02-23 06:43:00,
2013-02-23 01:48:00,36.7,33.2,30.13,ESE,112,2.3,2.3,87,0.00,OVC,,0.00,WeatherDisplay:10.37,2013-02-23 06:48:00,
2013-02-23 01:53:00,36.5,33.0,30.13,ESE,112,0.0,1.1,87,0.00,OVC,,0.00,WeatherDisplay:10.37,2013-02-23 06:53:00,
2013-02-23 01:58:00,36.5,33.0,30.13,SE,135,0.0,0.3,87,0.00,OVC,,0.00,WeatherDisplay:10.37,2013-02-23 06:58:00,
2013-02-23 02:03:00,36.5,33.0,30.13,ENE,68,2.3,2.3,87,0.00,OVC,,0.00,WeatherDisplay:10.37,2013-02-23 07:03:00,
2013-02-23 02:08:00,36.5,33.3,30.13,ESE,112,1.1,1.1,88,0.00,OVC,,0.00,WeatherDisplay:10.37,2013-02-23 07:08:00,
2013-02-23 02:13:00,36.5,33.3,30.13,NE,45,0.0,0.3,88,0.00,OVC,,0.00,WeatherDisplay:10.37,2013-02-23 07:13:00,
2013-02-23 02:18:00,36.5,33.3,30.12,ESE,112,2.3,2.3,88,0.00,OVC,,0.00,WeatherDisplay:10.37,2013-02-23 07:18:00,
2013-02-23 02:23:00,36.5,33.3,30.12,SE,135,4.6,4.6,88,0.00,OVC,,0.00,WeatherDisplay:10.37,2013-02-23 07:23:00,
2013-02-23 02:28:00,36.5,33.6,30.12,SE,135,4.6,4.6,89,0.00,OVC,,0.00,WeatherDisplay:10.37,2013-02-23 07:28:00,
2013-02-23 02:33:00,36.5,33.6,30.12,SE,135,4.6,4.6,89,0.00,OVC,,0.00,WeatherDisplay:10.37,2013-02-23 07:33:00,
2013-02-23 02:38:00,36.5,33.6,30.10,SE,135,4.8,4.8,89,0.00,OVC,,0.00,WeatherDisplay:10.37,2013-02-23 07:38:00,
2013-02-23 02:43:00,36.5,33.6,30.10,SE,135,0.0,0.0,89,0.00,OVC,,0.00,WeatherDisplay:10.37,2013-02-23 07:43:00,
2013-02-23 02:48:00,36.5,33.6,30.10,SE,135,0.0,0.0,89,0.00,OVC,,0.00,WeatherDisplay:10.37,2013-02-23 07:48:00,
2013-02-23 02:53:00,36.5,33.6,30.10,SE,135,0.0,0.0,89,0.00,OVC,,0.00,WeatherDisplay:10.37,2013-02-23 07:53:00,
2013-02-23 02:58:00,36.5,33.6,30.09,SE,135,0.0,0.0,89,0.00,OVC,,0.00,WeatherDisplay:10.37,2013-02-23 07:58:00,
2013-02-23 03:03:00,36.5,33.6,30.09,SE,135,0.0,0.0,89,0.00,OVC,,0.00,WeatherDisplay:10.37,2013-02-23 08:03:00,
2013-02-23 03:08:00,36.5,33.6,30.09,SE,135,0.0,0.0,89,0.00,OVC,,0.00,WeatherDisplay:10.37,2013-02-23 08:08:00,
2013-02-23 03:13:00,36.5,33.6,30.09,SE,135,0.0,0.0,89,0.00,OVC,,0.00,WeatherDisplay:10.37,2013-02-23 08:13:00,
2013-02-23 03:18:00,36.5,33.6,30.08,SE,135,0.0,0.0,89,0.00,OVC,,0.00,WeatherDisplay:10.37,2013-02-23 08:18:00,
2013-02-23 03:23:00,36.5,33.6,30.08,SE,135,0.0,0.0,89,0.00,OVC,,0.00,WeatherDisplay:10.37,2013-02-23 08:23:00,
2013-02-23 03:28:00,36.7,33.7,30.08,SE,135,0.0,0.0,89,0.00,OVC,,0.00,WeatherDisplay:10.37,2013-02-23 08:28:00,
2013-02-23 03:33:00,36.7,33.7,30.08,SE,135,0.0,0.0,89,0.00,OVC,,0.00,WeatherDisplay:10.37,2013-02-23 08:33:00,
2013-02-23 03:38:00,36.7,33.7,30.08,SE,135,0.0,0.0,89,0.00,OVC,,0.00,WeatherDisplay:10.37,2013-02-23 08:38:00,
2013-02-23 03:43:00,36.7,33.7,30.08,SE,135,0.0,0.0,89,0.00,OVC,,0.00,WeatherDisplay:10.37,2013-02-23 08:43:00,
2013-02-23 03:48:00,36.7,34.0,30.08,SE,135,0.0,0.0,90,0.00,OVC,,0.00,WeatherDisplay:10.37,2013-02-23 08:48:00,
2013-02-23 03:53:00,36.7,33.7,30.08,SE,135,0.0,0.0,89,0.00,OVC,,0.00,WeatherDisplay:10.37,2013-02-23 08:53:00,
2013-02-23 03:58:00,36.9,33.9,30.07,SE,135,0.0,0.0,89,0.00,OVC,,0.00,WeatherDisplay:10.37,2013-02-23 08:58:00,
2013-02-23 04:03:00,36.9,33.9,30.07,SE,135,0.0,0.0,89,0.00,OVC,,0.00,WeatherDisplay:10.37,2013-02-23 09:03:00,
2013-02-23 04:08:00,36.9,34.2,30.07,SE,135,0.0,0.0,90,0.00,OVC,,0.00,WeatherDisplay:10.37,2013-02-23 09:08:00,
2013-02-23 04:13:00,36.9,34.2,30.07,SE,135,0.0,0.0,90,0.00,OVC,,0.00,WeatherDisplay:10.37,2013-02-23 09:13:00,
2013-02-23 04:18:00,37.0,34.4,30.07,SE,135,0.0,0.0,90,0.00,OVC,,0.00,WeatherDisplay:10.37,2013-02-23 09:18:00,
2013-02-23 04:23:00,37.0,34.4,30.07,SE,135,0.0,0.0,90,0.00,OVC,,0.00,WeatherDisplay:10.37,2013-02-23 09:23:00,
2013-02-23 04:28:00,37.2,34.6,30.07,SE,135,0.0,0.0,90,0.00,OVC,,0.00,WeatherDisplay:10.37,2013-02-23 09:28:00,
2013-02-23 04:33:00,37.0,34.4,30.07,SE,135,0.0,0.0,90,0.00,OVC,,0.00,WeatherDisplay:10.37,2013-02-23 09:33:00,
2013-02-23 04:38:00,37.2,34.6,30.07,SE,135,0.0,0.0,90,0.00,OVC,,0.00,WeatherDisplay:10.37,2013-02-23 09:38:00,
2013-02-23 04:43:00,37.2,34.6,30.07,SE,135,0.0,0.0,90,0.00,OVC,,0.00,WeatherDisplay:10.37,2013-02-23 09:43:00,
2013-02-23 04:48:00,37.2,34.6,30.07,SE,135,0.0,0.0,90,0.00,OVC,,0.00,WeatherDisplay:10.37,2013-02-23 09:48:00,
2013-02-23 04:53:00,37.2,34.6,30.07,SE,135,0.0,0.0,90,0.00,OVC,,0.00,WeatherDisplay:10.37,2013-02-23 09:53:00,
2013-02-23 04:59:00,37.2,34.6,30.06,SE,135,0.0,0.0,90,0.00,OVC,,0.00,WeatherDisplay:10.37,2013-02-23 09:59:00,
2013-02-23 05:04:00,37.2,34.6,30.06,SE,135,0.0,0.0,90,0.00,OVC,,0.00,WeatherDisplay:10.37,2013-02-23 10:04:00,
2013-02-23 05:09:00,37.4,35.0,30.06,SE,135,0.0,0.0,91,0.00,OVC,,0.00,WeatherDisplay:10.37,2013-02-23 10:09:00,
2013-02-23 05:14:00,37.6,35.2,30.06,SE,135,0.0,0.0,91,0.00,OVC,,0.00,WeatherDisplay:10.37,2013-02-23 10:14:00,
2013-02-23 05:19:00,37.4,35.0,30.06,SE,135,0.0,0.0,91,0.00,OVC,,0.00,WeatherDisplay:10.37,2013-02-23 10:19:00,
2013-02-23 05:24:00,37.6,35.2,30.06,SE,135,0.0,0.0,91,0.00,OVC,,0.00,WeatherDisplay:10.37,2013-02-23 10:24:00,
2013-02-23 05:29:00,37.6,35.2,30.06,SE,135,0.0,0.0,91,0.00,OVC,,0.00,WeatherDisplay:10.37,2013-02-23 10:29:00,
2013-02-23 05:34:00,37.6,35.2,30.06,SE,135,0.0,0.0,91,0.00,OVC,,0.00,WeatherDisplay:10.37,2013-02-23 10:34:00,
2013-02-23 05:39:00,37.6,35.2,30.04,SE,135,0.0,0.0,91,0.00,OVC,,0.00,WeatherDisplay:10.37,2013-02-23 10:39:00,
2013-02-23 05:44:00,37.6,35.2,30.04,SE,135,0.0,0.0,91,0.00,OVC,,0.00,WeatherDisplay:10.37,2013-02-23 10:44:00,
2013-02-23 05:49:00,37.6,35.2,30.04,SE,135,0.0,0.0,91,0.03,RA,,0.03,WeatherDisplay:10.37,2013-02-23 10:49:00,
2013-02-23 05:54:00,37.6,35.2,30.04,SE,135,0.0,0.0,91,0.03,RA,,0.03,WeatherDisplay:10.37,2013-02-23 10:54:00,
2013-02-23 05:59:00,37.8,35.4,30.04,SE,135,0.0,0.0,91,0.03,OVC,,0.03,WeatherDisplay:10.37,2013-02-23 10:59:00,
2013-02-23 06:04:00,37.8,35.4,30.04,SE,135,0.0,0.0,91,0.03,OVC,,0.03,WeatherDisplay:10.37,2013-02-23 11:04:00,
2013-02-23 06:09:00,37.9,35.5,30.04,SE,135,0.0,0.0,91,0.03,OVC,,0.03,WeatherDisplay:10.37,2013-02-23 11:09:00,
2013-02-23 06:14:00,37.9,35.5,30.04,SE,135,0.0,0.0,91,0.03,OVC,,0.03,WeatherDisplay:10.37,2013-02-23 11:14:00,
2013-02-23 06:19:00,37.9,35.5,30.04,SE,135,0.0,0.0,91,0.03,OVC,,0.03,WeatherDisplay:10.37,2013-02-23 11:19:00,
2013-02-23 06:24:00,37.9,35.5,30.04,SE,135,0.0,0.0,91,0.03,OVC,,0.03,WeatherDisplay:10.37,2013-02-23 11:24:00,
2013-02-23 06:29:00,37.9,35.5,30.04,SE,135,0.0,0.0,91,0.03,OVC,,0.03,WeatherDisplay:10.37,2013-02-23 11:29:00,
2013-02-23 06:34:00,37.8,35.4,30.04,SE,135,0.0,0.0,91,0.03,OVC,,0.03,WeatherDisplay:10.37,2013-02-23 11:34:00,
2013-02-23 06:39:00,37.9,35.5,30.04,SE,135,0.0,0.0,91,0.03,OVC,,0.03,WeatherDisplay:10.37,2013-02-23 11:39:00,
2013-02-23 06:44:00,37.8,35.4,30.04,SE,135,0.0,0.0,91,0.03,OVC,,0.03,WeatherDisplay:10.37,2013-02-23 11:44:00,
2013-02-23 06:49:00,37.9,35.5,30.04,SE,135,0.0,0.0,91,0.00,OVC,,0.03,WeatherDisplay:10.37,2013-02-23 11:49:00,
2013-02-23 06:54:00,37.9,35.5,30.04,SE,135,0.0,0.0,91,0.00,OVC,,0.03,WeatherDisplay:10.37,2013-02-23 11:54:00,
2013-02-23 06:59:00,38.1,35.7,30.04,SE,135,0.0,0.0,91,0.00,OVC,,0.03,WeatherDisplay:10.37,2013-02-23 11:59:00,
2013-02-23 07:04:00,38.1,35.7,30.04,SE,135,0.0,0.0,91,0.00,OVC,,0.03,WeatherDisplay:10.37,2013-02-23 12:04:00,
2013-02-23 07:09:00,38.1,35.7,30.04,SE,135,0.0,0.0,91,0.00,OVC,,0.03,WeatherDisplay:10.37,2013-02-23 12:09:00,
2013-02-23 07:14:00,38.1,35.7,30.04,SE,135,0.0,0.0,91,0.00,OVC,,0.03,WeatherDisplay:10.37,2013-02-23 12:14:00,
2013-02-23 07:19:00,38.1,35.7,30.03,SE,135,0.0,0.0,91,0.00,OVC,,0.03,WeatherDisplay:10.37,2013-02-23 12:19:00,
2013-02-23 07:24:00,38.1,35.7,30.03,SE,135,0.0,0.0,91,0.00,OVC,,0.03,WeatherDisplay:10.37,2013-02-23 12:24:00,
2013-02-23 07:29:00,37.9,35.5,30.03,SE,135,0.0,0.0,91,0.00,OVC,,0.03,WeatherDisplay:10.37,2013-02-23 12:29:00,
2013-02-23 07:34:00,38.1,35.7,30.03,SE,135,0.0,0.0,91,0.00,OVC,,0.03,WeatherDisplay:10.37,2013-02-23 12:34:00,
2013-02-23 07:39:00,38.1,35.7,30.03,SE,135,0.0,0.0,91,0.00,OVC,,0.03,WeatherDisplay:10.37,2013-02-23 12:39:00,
2013-02-23 07:44:00,38.1,35.7,30.03,SE,135,0.0,0.0,91,0.00,OVC,,0.03,WeatherDisplay:10.37,2013-02-23 12:44:00,
2013-02-23 07:49:00,38.1,35.7,30.03,SE,135,0.0,0.0,91,0.00,OVC,,0.03,WeatherDisplay:10.37,2013-02-23 12:49:00,
2013-02-23 07:54:00,38.1,35.7,30.03,SE,135,0.0,0.0,91,0.00,OVC,,0.03,WeatherDisplay:10.37,2013-02-23 12:54:00,
2013-02-23 07:59:00,38.1,35.7,30.02,SE,135,0.0,0.0,91,0.00,OVC,,0.03,WeatherDisplay:10.37,2013-02-23 12:59:00,
2013-02-23 08:04:00,38.3,35.9,30.02,SE,135,0.0,0.0,91,0.00,OVC,,0.03,WeatherDisplay:10.37,2013-02-23 13:04:00,
2013-02-23 08:09:00,38.1,35.7,30.02,SE,135,0.0,0.0,91,0.00,OVC,,0.03,WeatherDisplay:10.37,2013-02-23 13:09:00,
2013-02-23 08:14:00,38.3,35.9,30.02,SE,135,0.0,0.0,91,0.00,OVC,,0.03,WeatherDisplay:10.37,2013-02-23 13:14:00,
2013-02-23 08:19:00,38.3,35.9,30.02,SE,135,0.0,0.0,91,0.00,OVC,,0.03,WeatherDisplay:10.37,2013-02-23 13:19:00,
2013-02-23 08:24:00,38.3,35.9,30.02,SE,135,0.0,0.0,91,0.00,OVC,,0.03,WeatherDisplay:10.37,2013-02-23 13:24:00,
2013-02-23 08:29:00,38.3,35.9,30.02,SE,135,0.0,0.0,91,0.00,OVC,,0.03,WeatherDisplay:10.37,2013-02-23 13:29:00,
2013-02-23 08:34:00,38.5,36.1,30.02,SE,135,0.0,0.0,91,0.00,OVC,,0.03,WeatherDisplay:10.37,2013-02-23 13:34:00,
2013-02-23 08:39:00,38.5,36.1,30.03,SE,135,0.0,0.0,91,0.00,OVC,,0.03,WeatherDisplay:10.37,2013-02-23 13:39:00,
2013-02-23 08:44:00,38.7,36.3,30.03,SE,135,0.0,0.0,91,0.00,OVC,,0.03,WeatherDisplay:10.37,2013-02-23 13:44:00,
2013-02-23 08:49:00,38.7,36.3,30.03,SE,135,0.0,0.0,91,0.03,RA,,0.06,WeatherDisplay:10.37,2013-02-23 13:49:00,
2013-02-23 08:54:00,38.7,36.3,30.03,SE,135,0.0,0.0,91,0.03,RA,,0.06,WeatherDisplay:10.37,2013-02-23 13:54:00,
2013-02-23 08:59:00,38.8,36.4,30.01,SE,135,0.0,0.0,91,0.03,OVC,,0.06,WeatherDisplay:10.37,2013-02-23 13:59:00,
2013-02-23 09:04:00,38.8,36.4,30.01,SE,135,0.0,0.0,91,0.03,OVC,,0.06,WeatherDisplay:10.37,2013-02-23 14:04:00,
2013-02-23 09:09:00,39.0,36.6,30.01,SE,135,0.0,0.0,91,0.03,OVC,,0.06,WeatherDisplay:10.37,2013-02-23 14:09:00,
2013-02-23 09:14:00,39.2,36.8,30.01,SE,135,0.0,0.0,91,0.03,OVC,,0.06,WeatherDisplay:10.37,2013-02-23 14:14:00,
2013-02-23 09:19:00,39.2,36.8,29.99,SE,135,0.0,0.0,91,0.06,RA,,0.08,WeatherDisplay:10.37,2013-02-23 14:19:00,
2013-02-23 09:24:00,39.4,37.2,29.99,SE,135,0.0,0.0,92,0.06,RA,,0.08,WeatherDisplay:10.37,2013-02-23 14:24:00,
2013-02-23 09:29:00,39.4,37.2,29.99,SE,135,0.0,0.0,92,0.06,OVC,,0.08,WeatherDisplay:10.37,2013-02-23 14:29:00,
2013-02-23 09:34:00,39.6,37.2,29.99,SE,135,0.0,0.0,91,0.06,OVC,,0.08,WeatherDisplay:10.37,2013-02-23 14:34:00,
2013-02-23 09:39:00,39.6,37.2,29.98,SE,135,0.0,0.0,91,0.06,OVC,,0.08,WeatherDisplay:10.37,2013-02-23 14:39:00,
2013-02-23 09:44:00,39.6,37.2,29.98,SE,135,0.0,0.0,91,0.06,OVC,,0.08,WeatherDisplay:10.37,2013-02-23 14:44:00,
2013-02-23 09:49:00,39.6,37.4,29.98,SE,135,0.0,0.0,92,0.03,OVC,,0.08,WeatherDisplay:10.37,2013-02-23 14:49:00,
2013-02-23 09:54:00,39.7,37.6,29.98,SE,135,0.0,0.0,92,0.03,OVC,,0.08,WeatherDisplay:10.37,2013-02-23 14:54:00,
2013-02-23 09:59:00,39.7,37.6,29.97,SE,135,0.0,0.0,92,0.03,OVC,,0.08,WeatherDisplay:10.37,2013-02-23 14:59:00,
2013-02-23 10:04:00,39.9,37.8,29.97,SE,135,0.0,0.0,92,0.03,OVC,,0.08,WeatherDisplay:10.37,2013-02-23 15:04:00,
2013-02-23 10:09:00,40.1,38.0,29.97,SE,135,0.0,0.0,92,0.03,OVC,,0.08,WeatherDisplay:10.37,2013-02-23 15:09:00,
2013-02-23 10:14:00,40.1,38.0,29.97,SE,135,0.0,0.0,92,0.03,OVC,,0.08,WeatherDisplay:10.37,2013-02-23 15:14:00,
2013-02-23 10:19:00,40.1,38.0,29.97,SE,135,0.0,0.0,92,0.03,OVC,,0.08,WeatherDisplay:10.37,2013-02-23 15:19:00,
2013-02-23 10:24:00,40.3,38.1,29.97,SE,135,0.0,0.0,92,0.00,OVC,,0.08,WeatherDisplay:10.37,2013-02-23 15:24:00,
2013-02-23 10:29:00,40.3,38.1,29.97,SE,135,0.0,0.0,92,0.03,RA,,0.11,WeatherDisplay:10.37,2013-02-23 15:29:00,
2013-02-23 10:34:00,40.5,38.3,29.97,SE,135,0.0,0.0,92,0.03,RA,,0.11,WeatherDisplay:10.37,2013-02-23 15:34:00,
2013-02-23 10:39:00,40.5,38.3,29.96,SE,135,0.0,0.0,92,0.03,OVC,,0.11,WeatherDisplay:10.37,2013-02-23 15:39:00,
2013-02-23 10:44:00,40.8,38.7,29.96,SE,135,0.0,0.0,92,0.03,OVC,,0.11,WeatherDisplay:10.37,2013-02-23 15:44:00,
2013-02-23 10:49:00,40.6,38.5,29.96,SE,135,0.0,0.0,92,0.03,OVC,,0.11,WeatherDisplay:10.37,2013-02-23 15:49:00,
2013-02-23 10:54:00,41.0,38.9,29.96,SE,135,0.0,0.0,92,0.06,RA,,0.14,WeatherDisplay:10.37,2013-02-23 15:54:00,
2013-02-23 10:59:00,40.8,38.4,29.95,SE,135,0.0,0.0,91,0.06,RA,,0.14,WeatherDisplay:10.37,2013-02-23 15:59:00,
2013-02-23 11:04:00,41.2,38.8,29.95,SE,135,0.0,0.0,91,0.06,OVC,,0.14,WeatherDisplay:10.37,2013-02-23 16:04:00,
2013-02-23 11:09:00,41.0,38.6,29.95,SE,135,0.0,0.0,91,0.06,OVC,,0.14,WeatherDisplay:10.37,2013-02-23 16:09:00,
2013-02-23 11:14:00,41.2,38.8,29.95,NNE,22,2.3,2.3,91,0.06,OVC,,0.14,WeatherDisplay:10.37,2013-02-23 16:14:00,
2013-02-23 11:19:00,41.5,39.4,29.95,ENE,68,1.1,1.1,92,0.06,OVC,,0.14,WeatherDisplay:10.37,2013-02-23 16:19:00,
2013-02-23 11:24:00,41.5,39.4,29.95,ENE,68,2.3,2.3,92,0.08,RA,,0.17,WeatherDisplay:10.37,2013-02-23 16:24:00,
2013-02-23 11:29:00,41.5,39.4,29.95,SE,135,2.3,2.3,92,0.06,RA,,0.17,WeatherDisplay:10.37,2013-02-23 16:29:00,
2013-02-23 11:34:00,41.5,39.4,29.95,NNW,338,2.3,2.3,92,0.06,OVC,,0.17,WeatherDisplay:10.37,2013-02-23 16:34:00,
2013-02-23 11:39:00,41.2,38.8,29.94,ESE,112,2.3,2.3,91,0.06,OVC,,0.17,WeatherDisplay:10.37,2013-02-23 16:39:00,
2013-02-23 11:44:00,41.2,38.8,29.94,North,0,1.1,1.1,91,0.06,OVC,,0.17,WeatherDisplay:10.37,2013-02-23 16:44:00,
2013-02-23 11:49:00,41.5,39.4,29.94,ENE,68,3.9,3.9,92,0.08,RA,,0.19,WeatherDisplay:10.37,2013-02-23 16:49:00,
2013-02-23 11:54:00,41.4,38.9,29.94,NNW,338,3.5,3.5,91,0.06,RA,,0.19,WeatherDisplay:10.37,2013-02-23 16:54:00,
2013-02-23 11:59:00,41.4,38.9,29.91,NNE,22,3.5,3.5,91,0.06,OVC,,0.19,WeatherDisplay:10.37,2013-02-23 16:59:00,
2013-02-23 12:04:00,41.4,38.9,29.91,ENE,68,4.6,4.6,91,0.06,OVC,,0.19,WeatherDisplay:10.37,2013-02-23 17:04:00,
2013-02-23 12:09:00,41.5,39.4,29.91,ENE,68,3.5,3.5,92,0.06,OVC,,0.19,WeatherDisplay:10.37,2013-02-23 17:09:00,
2013-02-23 12:14:00,41.4,38.9,29.91,NNE,22,3.5,3.5,91,0.06,OVC,,0.19,WeatherDisplay:10.37,2013-02-23 17:14:00,
2013-02-23 12:19:00,41.7,39.6,29.91,NE,45,1.5,1.5,92,0.06,OVC,,0.19,WeatherDisplay:10.37,2013-02-23 17:19:00,
2013-02-23 12:24:00,41.9,39.7,29.91,ENE,68,3.5,3.5,92,0.06,RA,,0.22,WeatherDisplay:10.37,2013-02-23 17:24:00,
2013-02-23 12:29:00,41.7,39.6,29.91,ENE,68,0.0,0.7,92,0.06,RA,,0.22,WeatherDisplay:10.37,2013-02-23 17:29:00,
2013-02-23 12:34:00,41.9,39.7,29.91,East,90,2.3,2.3,92,0.06,OVC,,0.22,WeatherDisplay:10.37,2013-02-23 17:34:00,
2013-02-23 12:39:00,41.9,39.7,29.90,NNE,22,2.3,2.3,92,0.06,OVC,,0.22,WeatherDisplay:10.37,2013-02-23 17:39:00,
2013-02-23 12:44:00,41.9,39.7,29.90,WNW,292,1.1,1.1,92,0.06,OVC,,0.22,WeatherDisplay:10.37,2013-02-23 17:44:00,
2013-02-23 12:49:00,41.9,39.7,29.90,WNW,292,0.0,0.6,92,0.03,OVC,,0.22,WeatherDisplay:10.37,2013-02-23 17:49:00,
2013-02-23 12:54:00,41.9,39.7,29.90,WNW,292,0.0,0.0,92,0.03,OVC,,0.22,WeatherDisplay:10.37,2013-02-23 17:54:00,
2013-02-23 12:59:00,41.9,39.7,29.88,ENE,68,2.3,2.3,92,0.03,OVC,,0.22,WeatherDisplay:10.37,2013-02-23 17:59:00,
2013-02-23 13:04:00,42.1,39.9,29.88,NE,45,2.0,2.0,92,0.03,OVC,,0.22,WeatherDisplay:10.37,2013-02-23 18:04:00,
2013-02-23 13:09:00,42.3,40.1,29.88,East,90,2.3,2.3,92,0.03,OVC,,0.22,WeatherDisplay:10.37,2013-02-23 18:09:00,
2013-02-23 13:14:00,42.4,40.3,29.88,ENE,68,1.3,1.3,92,0.03,OVC,,0.22,WeatherDisplay:10.37,2013-02-23 18:14:00,
2013-02-23 13:19:00,42.4,40.3,29.87,NNW,338,1.1,1.1,92,0.03,OVC,,0.22,WeatherDisplay:10.37,2013-02-23 18:19:00,
2013-02-23 13:24:00,42.6,40.5,29.87,West,270,2.0,2.0,92,0.00,OVC,,0.22,WeatherDisplay:10.37,2013-02-23 18:24:00,
2013-02-23 13:29:00,42.4,40.3,29.87,South,180,3.5,3.5,92,0.03,RA,,0.25,WeatherDisplay:10.37,2013-02-23 18:29:00,
2013-02-23 13:34:00,42.6,40.5,29.87,North,0,2.3,2.3,92,0.03,RA,,0.25,WeatherDisplay:10.37,2013-02-23 18:34:00,
2013-02-23 13:39:00,42.4,40.3,29.86,NNW,338,2.3,2.3,92,0.03,OVC,,0.25,WeatherDisplay:10.37,2013-02-23 18:39:00,
2013-02-23 13:44:00,42.4,40.3,29.86,WNW,292,0.0,0.8,92,0.03,OVC,,0.25,WeatherDisplay:10.37,2013-02-23 18:44:00,
2013-02-23 13:49:00,42.4,40.3,29.86,NW,315,2.3,2.3,92,0.03,OVC,,0.25,WeatherDisplay:10.37,2013-02-23 18:49:00,
2013-02-23 13:54:00,42.4,40.3,29.86,NNE,22,3.0,3.0,92,0.03,RA,,0.25,WeatherDisplay:10.37,2013-02-23 18:54:00,
2013-02-23 13:59:00,42.4,40.3,29.86,NW,315,1.1,1.1,92,0.03,RA,,0.25,WeatherDisplay:10.37,2013-02-23 18:59:00,
2013-02-23 14:04:00,42.4,40.3,29.86,NNE,22,3.3,3.3,92,0.03,OVC,,0.25,WeatherDisplay:10.37,2013-02-23 19:04:00,
2013-02-23 14:09:00,42.4,40.3,29.86,North,0,1.1,1.1,92,0.03,OVC,,0.25,WeatherDisplay:10.37,2013-02-23 19:09:00,
2013-02-23 14:14:00,42.4,40.3,29.86,West,270,0.0,0.7,92,0.03,OVC,,0.28,WeatherDisplay:10.37,2013-02-23 19:14:00,
2013-02-23 14:19:00,42.4,40.3,29.86,ESE,112,0.0,0.1,92,0.06,RA,,0.28,WeatherDisplay:10.37,2013-02-23 19:19:00,
2013-02-23 14:24:00,42.4,40.3,29.86,ENE,68,0.0,0.5,92,0.06,RA,,0.28,WeatherDisplay:10.37,2013-02-23 19:24:00,
2013-02-23 14:29:00,42.6,40.5,29.86,NW,315,2.3,2.3,92,0.06,OVC,,0.30,WeatherDisplay:10.37,2013-02-23 19:29:00,
2013-02-23 14:34:00,42.4,40.3,29.86,ENE,68,2.3,2.3,92,0.06,RA,,0.30,WeatherDisplay:10.37,2013-02-23 19:34:00,
2013-02-23 14:39:00,42.4,40.3,29.84,NNE,22,2.3,2.3,92,0.06,RA,,0.30,WeatherDisplay:10.37,2013-02-23 19:39:00,
2013-02-23 14:44:00,42.4,40.3,29.84,NE,45,2.3,2.3,92,0.06,OVC,,0.30,WeatherDisplay:10.37,2013-02-23 19:44:00,
2013-02-23 14:49:00,42.4,40.3,29.84,North,0,2.3,2.3,92,0.06,OVC,,0.30,WeatherDisplay:10.37,2013-02-23 19:49:00,
2013-02-23 14:54:00,42.4,40.3,29.84,ESE,112,0.0,0.6,92,0.06,OVC,,0.30,WeatherDisplay:10.37,2013-02-23 19:54:00,
2013-02-23 15:00:00,42.4,40.3,29.84,WSW,248,3.5,3.5,92,0.08,RA,,0.33,WeatherDisplay:10.37,2013-02-23 20:00:00,
2013-02-23 15:05:00,42.4,40.3,29.84,NNW,338,1.1,1.1,92,0.08,RA,,0.33,WeatherDisplay:10.37,2013-02-23 20:05:00,
2013-02-23 15:10:00,42.4,40.3,29.84,NNW,338,1.4,1.4,92,0.08,OVC,,0.33,WeatherDisplay:10.37,2013-02-23 20:10:00,
2013-02-23 15:15:00,42.6,40.5,29.84,North,0,1.4,1.4,92,0.08,OVC,,0.33,WeatherDisplay:10.37,2013-02-23 20:15:00,
2013-02-23 15:20:00,42.6,40.5,29.84,NE,45,0.0,0.3,92,0.06,OVC,,0.33,WeatherDisplay:10.37,2013-02-23 20:20:00,
2013-02-23 15:25:00,42.3,40.1,29.84,NNW,338,1.5,1.5,92,0.08,RA,,0.36,WeatherDisplay:10.37,2013-02-23 20:25:00,
2013-02-23 15:30:00,42.3,40.1,29.84,NNW,338,2.3,2.3,92,0.08,RA,,0.36,WeatherDisplay:10.37,2013-02-23 20:30:00,
2013-02-23 15:35:00,42.3,40.1,29.84,NNW,338,0.0,0.5,92,0.06,OVC,,0.36,WeatherDisplay:10.37,2013-02-23 20:35:00,
2013-02-23 15:40:00,42.3,40.1,29.84,NNW,338,2.3,2.3,92,0.09,RA,,0.39,WeatherDisplay:10.37,2013-02-23 20:40:00,
2013-02-23 15:45:00,42.3,40.1,29.84,NNW,338,2.0,2.0,92,0.09,RA,,0.39,WeatherDisplay:10.37,2013-02-23 20:45:00,
2013-02-23 15:50:00,42.4,40.3,29.84,North,0,2.3,2.3,92,0.11,RA,,0.42,WeatherDisplay:10.37,2013-02-23 20:50:00,
2013-02-23 15:55:00,42.3,40.1,29.84,NNE,22,2.3,2.3,92,0.11,RA,,0.42,WeatherDisplay:10.37,2013-02-23 20:55:00,
2013-02-23 16:00:00,42.4,40.3,29.82,NNE,22,2.3,2.3,92,0.09,OVC,,0.42,WeatherDisplay:10.37,2013-02-23 21:00:00,
2013-02-23 16:05:00,42.4,40.3,29.82,WSW,248,2.3,2.3,92,0.09,OVC,,0.42,WeatherDisplay:10.37,2013-02-23 21:05:00,
2013-02-23 16:10:00,42.6,40.5,29.82,ENE,68,5.8,5.8,92,0.09,OVC,,0.42,WeatherDisplay:10.37,2013-02-23 21:10:00,
2013-02-23 16:15:00,42.6,40.5,29.82,ENE,68,2.6,2.8,92,0.11,RA,,0.44,WeatherDisplay:10.37,2013-02-23 21:15:00,
2013-02-23 16:20:00,42.6,40.5,29.82,ENE,68,3.5,3.5,92,0.11,RA,,0.44,WeatherDisplay:10.37,2013-02-23 21:20:00,
2013-02-23 16:25:00,42.6,40.5,29.82,ENE,68,2.3,2.4,92,0.09,OVC,,0.44,WeatherDisplay:10.37,2013-02-23 21:25:00,
2013-02-23 16:30:00,42.6,40.5,29.82,ENE,68,2.3,2.4,92,0.09,OVC,,0.44,WeatherDisplay:10.37,2013-02-23 21:30:00,
2013-02-23 16:35:00,42.6,40.5,29.82,East,90,3.3,3.3,92,0.09,OVC,,0.44,WeatherDisplay:10.37,2013-02-23 21:35:00,
2013-02-23 16:40:00,42.4,40.3,29.82,NNE,22,2.3,2.3,92,0.06,OVC,,0.44,WeatherDisplay:10.37,2013-02-23 21:40:00,
2013-02-23 16:45:00,42.6,40.5,29.82,ENE,68,2.3,2.3,92,0.06,OVC,,0.44,WeatherDisplay:10.37,2013-02-23 21:45:00,
2013-02-23 16:50:00,42.4,40.3,29.82,ENE,68,2.3,2.3,92,0.06,RA,,0.47,WeatherDisplay:10.37,2013-02-23 21:50:00,
2013-02-23 16:55:00,42.6,40.5,29.82,NE,45,3.5,3.5,92,0.06,RA,,0.47,WeatherDisplay:10.37,2013-02-23 21:55:00,
2013-02-23 17:00:00,42.6,40.5,29.81,ENE,68,2.3,2.3,92,0.06,OVC,,0.47,WeatherDisplay:10.37,2013-02-23 22:00:00,
2013-02-23 17:05:00,42.4,40.3,29.81,NE,45,4.6,4.6,92,0.06,OVC,,0.47,WeatherDisplay:10.37,2013-02-23 22:05:00,
2013-02-23 17:10:00,42.3,40.1,29.81,ENE,68,3.5,3.5,92,0.06,OVC,,0.47,WeatherDisplay:10.37,2013-02-23 22:10:00,
2013-02-23 17:15:00,42.3,40.1,29.81,ENE,68,4.6,4.6,92,0.03,OVC,,0.47,WeatherDisplay:10.37,2013-02-23 22:15:00,
2013-02-23 17:20:00,42.3,40.1,29.81,NE,45,4.6,4.6,92,0.03,OVC,,0.47,WeatherDisplay:10.37,2013-02-23 22:20:00,
2013-02-23 17:25:00,42.3,40.1,29.81,NE,45,4.6,4.6,92,0.03,OVC,,0.47,WeatherDisplay:10.37,2013-02-23 22:25:00,
2013-02-23 17:30:00,41.9,39.7,29.81,NE,45,4.6,4.6,92,0.03,OVC,,0.47,WeatherDisplay:10.37,2013-02-23 22:30:00,
2013-02-23 17:35:00,41.7,39.6,29.81,ENE,68,4.6,4.6,92,0.03,OVC,,0.47,WeatherDisplay:10.37,2013-02-23 22:35:00,
2013-02-23 17:40:00,41.5,39.4,29.79,ENE,68,2.9,2.9,92,0.03,OVC,,0.47,WeatherDisplay:10.37,2013-02-23 22:40:00,
2013-02-23 17:45:00,41.5,39.4,29.79,ENE,68,5.4,5.4,92,0.03,OVC,,0.47,WeatherDisplay:10.37,2013-02-23 22:45:00,
2013-02-23 17:50:00,41.0,38.9,29.79,SE,135,2.3,2.3,92,0.00,OVC,,0.47,WeatherDisplay:10.37,2013-02-23 22:50:00,
2013-02-23 17:55:00,40.8,38.7,29.79,East,90,5.8,5.8,92,0.03,RA,,0.50,WeatherDisplay:10.37,2013-02-23 22:55:00,
2013-02-23 18:00:00,40.8,38.7,29.79,NNW,338,2.3,2.4,92,0.03,RA,,0.50,WeatherDisplay:10.37,2013-02-23 23:00:00,
2013-02-23 18:05:00,40.3,38.1,29.79,NE,45,6.9,6.9,92,0.03,OVC,,0.50,WeatherDisplay:10.37,2013-02-23 23:05:00,
2013-02-23 18:10:00,40.3,38.1,29.79,NE,45,6.9,6.9,92,0.03,OVC,,0.50,WeatherDisplay:10.37,2013-02-23 23:10:00,
2013-02-23 18:15:00,40.1,38.0,29.79,WNW,292,6.9,6.9,92,0.03,OVC,,0.50,WeatherDisplay:10.37,2013-02-23 23:15:00,
2013-02-23 18:20:00,40.1,38.0,29.81,NNW,338,3.5,3.5,92,0.03,OVC,,0.50,WeatherDisplay:10.37,2013-02-23 23:20:00,
2013-02-23 18:26:00,39.7,37.6,29.81,NNE,22,4.6,4.6,92,0.03,OVC,,0.50,WeatherDisplay:10.37,2013-02-23 23:26:00,
2013-02-23 18:31:00,39.6,37.4,29.81,NNW,338,3.5,3.5,92,0.03,OVC,,0.50,WeatherDisplay:10.37,2013-02-23 23:31:00,
2013-02-23 18:36:00,39.6,37.4,29.81,NNW,338,3.5,3.5,92,0.03,OVC,,0.50,WeatherDisplay:10.37,2013-02-23 23:36:00,
2013-02-23 18:41:00,39.4,37.2,29.80,ENE,68,4.6,4.6,92,0.03,OVC,,0.50,WeatherDisplay:10.37,2013-02-23 23:41:00,
2013-02-23 18:46:00,39.4,37.2,29.80,NW,315,2.3,2.3,92,0.03,OVC,,0.50,WeatherDisplay:10.37,2013-02-23 23:46:00,
2013-02-23 18:51:00,39.4,37.2,29.80,ENE,68,4.0,4.0,92,0.06,RA,,0.53,WeatherDisplay:10.37,2013-02-23 23:51:00,
2013-02-23 18:56:00,39.0,36.9,29.80,NW,315,5.8,5.8,92,0.03,RA,,0.53,WeatherDisplay:10.37,2013-02-23 23:56:00,
2013-02-23 19:01:00,38.8,36.7,29.81,ENE,68,4.6,4.6,92,0.03,OVC,,0.53,WeatherDisplay:10.37,2013-02-24 00:01:00,
2013-02-23 19:06:00,38.7,36.5,29.81,SSE,158,2.3,2.8,92,0.03,OVC,,0.53,WeatherDisplay:10.37,2013-02-24 00:06:00,
2013-02-23 19:11:00,38.5,36.4,29.81,SE,135,2.3,2.4,92,0.03,OVC,,0.53,WeatherDisplay:10.37,2013-02-24 00:11:00,
2013-02-23 19:16:00,38.7,36.5,29.81,NE,45,5.8,5.8,92,0.03,OVC,,0.53,WeatherDisplay:10.37,2013-02-24 00:16:00,
2013-02-23 19:21:00,38.3,36.2,29.80,NNW,338,3.5,3.5,92,0.03,OVC,,0.53,WeatherDisplay:10.37,2013-02-24 00:21:00,
2013-02-23 19:26:00,38.1,36.0,29.80,NW,315,3.5,3.5,92,0.03,OVC,,0.53,WeatherDisplay:10.37,2013-02-24 00:26:00,
2013-02-23 19:31:00,38.3,36.2,29.80,ENE,68,3.5,3.5,92,0.03,OVC,,0.53,WeatherDisplay:10.37,2013-02-24 00:31:00,
2013-02-23 19:36:00,37.9,35.8,29.80,ENE,68,4.6,4.6,92,0.03,OVC,,0.53,WeatherDisplay:10.37,2013-02-24 00:36:00,
2013-02-23 19:41:00,37.9,35.8,29.79,East,90,4.6,4.6,92,0.03,OVC,,0.53,WeatherDisplay:10.37,2013-02-24 00:41:00,
2013-02-23 19:46:00,37.9,35.8,29.79,NE,45,4.6,4.6,92,0.03,OVC,,0.53,WeatherDisplay:10.37,2013-02-24 00:46:00,
2013-02-23 19:51:00,37.9,35.8,29.79,NE,45,3.5,3.5,92,0.00,OVC,,0.53,WeatherDisplay:10.37,2013-02-24 00:51:00,
2013-02-23 19:56:00,37.6,35.5,29.79,East,90,4.6,4.6,92,0.00,OVC,,0.53,WeatherDisplay:10.37,2013-02-24 00:56:00,
2013-02-23 20:01:00,37.6,35.5,29.78,North,0,2.3,2.4,92,0.00,OVC,,0.53,WeatherDisplay:10.37,2013-02-24 01:01:00,
2013-02-23 20:06:00,37.4,35.3,29.78,East,90,4.6,4.6,92,0.00,OVC,,0.53,WeatherDisplay:10.37,2013-02-24 01:06:00,
2013-02-23 20:11:00,37.6,35.5,29.78,ENE,68,3.5,3.5,92,0.00,OVC,,0.53,WeatherDisplay:10.37,2013-02-24 01:11:00,
2013-02-23 20:16:00,37.4,35.3,29.78,East,90,4.6,4.6,92,0.00,OVC,,0.53,WeatherDisplay:10.37,2013-02-24 01:16:00,
2013-02-23 20:21:00,37.4,35.3,29.77,NNW,338,5.8,5.8,92,0.00,OVC,,0.53,WeatherDisplay:10.37,2013-02-24 01:21:00,
2013-02-23 20:26:00,37.4,35.3,29.77,NW,315,2.3,2.3,92,0.00,OVC,,0.53,WeatherDisplay:10.37,2013-02-24 01:26:00,
2013-02-23 20:31:00,37.2,35.1,29.77,ENE,68,3.5,3.5,92,0.00,OVC,,0.53,WeatherDisplay:10.37,2013-02-24 01:31:00,
2013-02-23 20:36:00,37.2,35.1,29.77,NW,315,3.5,3.5,92,0.00,OVC,,0.53,WeatherDisplay:10.37,2013-02-24 01:36:00,
2013-02-23 20:42:00,37.2,35.1,29.76,North,0,3.6,3.6,92,0.00,OVC,,0.53,WeatherDisplay:10.37,2013-02-24 01:42:00,
2013-02-23 20:47:00,37.2,35.1,29.76,ENE,68,2.3,2.3,92,0.00,OVC,,0.53,WeatherDisplay:10.37,2013-02-24 01:47:00,
2013-02-23 20:52:00,37.2,35.1,29.76,ENE,68,2.3,2.3,92,0.00,OVC,,0.53,WeatherDisplay:10.37,2013-02-24 01:52:00,
2013-02-23 20:57:00,37.2,35.1,29.76,NE,45,6.9,6.9,92,0.00,OVC,,0.53,WeatherDisplay:10.37,2013-02-24 01:57:00,
2013-02-23 21:02:00,37.0,34.9,29.76,NNE,22,5.8,5.8,92,0.00,OVC,,0.53,WeatherDisplay:10.37,2013-02-24 02:02:00,
2013-02-23 21:07:00,37.2,35.1,29.76,ESE,112,2.3,2.5,92,0.00,OVC,,0.53,WeatherDisplay:10.37,2013-02-24 02:07:00,
2013-02-23 21:12:00,37.2,35.1,29.76,WSW,248,3.5,3.5,92,0.00,OVC,,0.53,WeatherDisplay:10.37,2013-02-24 02:12:00,
2013-02-23 21:17:00,37.2,35.1,29.75,NE,45,4.6,4.6,92,0.00,OVC,,0.53,WeatherDisplay:10.37,2013-02-24 02:17:00,
2013-02-23 21:22:00,37.2,35.1,29.75,ESE,112,2.4,2.4,92,0.00,OVC,,0.53,WeatherDisplay:10.37,2013-02-24 02:22:00,
2013-02-23 21:27:00,36.9,34.8,29.75,ENE,68,3.6,3.6,92,0.00,OVC,,0.53,WeatherDisplay:10.37,2013-02-24 02:27:00,
2013-02-23 21:32:00,36.9,34.8,29.75,NNE,22,5.8,5.8,92,0.00,OVC,,0.53,WeatherDisplay:10.37,2013-02-24 02:32:00,
2013-02-23 21:37:00,36.9,34.8,29.74,ENE,68,8.1,8.1,92,0.00,OVC,,0.53,WeatherDisplay:10.37,2013-02-24 02:37:00,
2013-02-23 21:42:00,36.9,34.8,29.74,East,90,6.9,6.9,92,0.00,OVC,,0.53,WeatherDisplay:10.37,2013-02-24 02:42:00,
2013-02-23 21:47:00,36.9,34.8,29.74,NNW,338,5.8,5.8,92,0.00,OVC,,0.53,WeatherDisplay:10.37,2013-02-24 02:47:00,
2013-02-23 21:52:00,36.9,34.8,29.74,ENE,68,5.8,5.8,92,0.00,OVC,,0.53,WeatherDisplay:10.37,2013-02-24 02:52:00,
2013-02-23 21:57:00,36.9,34.8,29.74,NNE,22,5.8,5.8,92,0.00,OVC,,0.53,WeatherDisplay:10.37,2013-02-24 02:57:00,
2013-02-23 22:02:00,36.7,34.6,29.74,NE,45,4.7,4.7,92,0.00,OVC,,0.53,WeatherDisplay:10.37,2013-02-24 03:02:00,
2013-02-23 22:07:00,36.7,34.6,29.74,ESE,112,3.5,3.5,92,0.00,OVC,,0.53,WeatherDisplay:10.37,2013-02-24 03:07:00,
2013-02-23 22:12:00,36.7,34.6,29.74,NNE,22,6.9,6.9,92,0.00,OVC,,0.53,WeatherDisplay:10.37,2013-02-24 03:12:00,
2013-02-23 22:17:00,36.7,34.6,29.73,SE,135,4.6,4.6,92,0.00,OVC,,0.53,WeatherDisplay:10.37,2013-02-24 03:17:00,
2013-02-23 22:22:00,36.7,34.6,29.73,NE,45,5.8,5.8,92,0.00,OVC,,0.53,WeatherDisplay:10.37,2013-02-24 03:22:00,
2013-02-23 22:27:00,36.7,34.6,29.73,NNW,338,4.6,4.6,92,0.00,OVC,,0.53,WeatherDisplay:10.37,2013-02-24 03:27:00,
2013-02-23 22:32:00,36.7,34.6,29.73,ENE,68,5.8,5.8,92,0.00,OVC,,0.53,WeatherDisplay:10.37,2013-02-24 03:32:00,
2013-02-23 22:37:00,36.7,34.6,29.72,East,90,4.6,4.6,92,0.00,OVC,,0.53,WeatherDisplay:10.37,2013-02-24 03:37:00,
2013-02-23 22:42:00,36.7,34.6,29.72,ENE,68,4.6,4.6,92,0.00,OVC,,0.53,WeatherDisplay:10.37,2013-02-24 03:42:00,
2013-02-23 22:47:00,36.9,34.8,29.72,NNE,22,5.8,5.8,92,0.00,OVC,,0.53,WeatherDisplay:10.37,2013-02-24 03:47:00,
2013-02-23 22:52:00,36.7,34.6,29.72,ENE,68,3.5,3.5,92,0.00,OVC,,0.53,WeatherDisplay:10.37,2013-02-24 03:52:00,
2013-02-23 22:57:00,36.7,34.6,29.72,SSE,158,1.5,1.5,92,0.00,OVC,,0.53,WeatherDisplay:10.37,2013-02-24 03:57:00,
2013-02-23 23:02:00,36.9,34.8,29.72,NE,45,6.9,6.9,92,0.00,OVC,,0.53,WeatherDisplay:10.37,2013-02-24 04:02:00,
2013-02-23 23:07:00,36.9,34.8,29.72,North,0,8.1,8.1,92,0.00,OVC,,0.53,WeatherDisplay:10.37,2013-02-24 04:07:00,
2013-02-23 23:12:00,36.9,34.8,29.72,NNW,338,4.6,4.6,92,0.00,OVC,,0.53,WeatherDisplay:10.37,2013-02-24 04:12:00,
2013-02-23 23:17:00,36.9,34.8,29.70,North,0,3.5,3.5,92,0.00,OVC,,0.53,WeatherDisplay:10.37,2013-02-24 04:17:00,
2013-02-23 23:22:00,36.9,34.8,29.70,North,0,4.6,4.6,92,0.00,OVC,,0.53,WeatherDisplay:10.37,2013-02-24 04:22:00,
2013-02-23 23:27:00,37.0,34.9,29.70,NNW,338,4.6,4.6,92,0.00,OVC,,0.53,WeatherDisplay:10.37,2013-02-24 04:27:00,
2013-02-23 23:32:00,37.0,34.9,29.70,NNW,338,2.3,2.4,92,0.00,OVC,,0.53,WeatherDisplay:10.37,2013-02-24 04:32:00,
2013-02-23 23:37:00,37.0,34.9,29.69,NNW,338,4.6,4.6,92,0.00,OVC,,0.53,WeatherDisplay:10.37,2013-02-24 04:37:00,
2013-02-23 23:42:00,36.9,34.8,29.69,WNW,292,1.1,2.1,92,0.00,OVC,,0.53,WeatherDisplay:10.37,2013-02-24 04:42:00,
2013-02-23 23:47:00,37.0,34.9,29.69,NNE,22,2.3,2.3,92,0.00,OVC,,0.53,WeatherDisplay:10.37,2013-02-24 04:47:00,
2013-02-23 23:52:00,36.9,34.8,29.69,WNW,292,3.5,3.5,92,0.00,OVC,,0.53,WeatherDisplay:10.37,2013-02-24 04:52:00,
2013-02-23 23:57:00,36.9,34.8,29.69,ENE,68,3.5,3.5,92,0.00,OVC,,0.53,WeatherDisplay:10.37,2013-02-24 04:57:00,